sensor_id;sensor_type;location;lat;lon;timestamp;temperature;humidity
47660;DHT22;33403;43.608;1.458;2023-07-30T00:01:17;24.10;99.90
47660;DHT22;33403;43.608;1.458;2023-07-30T00:03:43;24.10;99.90
47660;DHT22;33403;43.608;1.458;2023-07-30T00:06:08;24.10;99.90
47660;DHT22;33403;43.608;1.458;2023-07-30T00:08:34;24.10;99.90
47660;DHT22;33403;43.608;1.458;2023-07-30T00:11:00;24.10;99.90
47660;DHT22;33403;43.608;1.458;2023-07-30T00:13:26;24.10;99.90
47660;DHT22;33403;43.608;1.458;2023-07-30T00:15:51;24.10;99.90
47660;DHT22;33403;43.608;1.458;2023-07-30T00:18:17;24.10;99.90
47660;DHT22;33403;43.608;1.458;2023-07-30T00:20:43;24.10;99.90
47660;DHT22;33403;43.608;1.458;2023-07-30T00:23:08;24.00;99.90
47660;DHT22;33403;43.608;1.458;2023-07-30T00:25:34;23.90;99.90
47660;DHT22;33403;43.608;1.458;2023-07-30T00:28:00;23.90;99.90
47660;DHT22;33403;43.608;1.458;2023-07-30T00:30:25;23.80;99.90
47660;DHT22;33403;43.608;1.458;2023-07-30T00:32:51;23.90;99.90
47660;DHT22;33403;43.608;1.458;2023-07-30T00:35:16;23.90;99.90
47660;DHT22;33403;43.608;1.458;2023-07-30T00:37:42;23.90;99.90
47660;DHT22;33403;43.608;1.458;2023-07-30T00:40:08;23.90;99.90
47660;DHT22;33403;43.608;1.458;2023-07-30T00:42:34;23.90;99.90
47660;DHT22;33403;43.608;1.458;2023-07-30T00:44:59;23.80;99.90
47660;DHT22;33403;43.608;1.458;2023-07-30T00:47:26;23.80;99.90
47660;DHT22;33403;43.608;1.458;2023-07-30T00:49:52;23.80;99.90
47660;DHT22;33403;43.608;1.458;2023-07-30T00:52:20;23.80;99.90
47660;DHT22;33403;43.608;1.458;2023-07-30T00:54:47;23.80;99.90
47660;DHT22;33403;43.608;1.458;2023-07-30T00:57:14;23.80;99.90
47660;DHT22;33403;43.608;1.458;2023-07-30T00:59:40;23.70;99.90
47660;DHT22;33403;43.608;1.458;2023-07-30T01:02:06;23.70;99.90
47660;DHT22;33403;43.608;1.458;2023-07-30T01:04:32;23.70;99.90
47660;DHT22;33403;43.608;1.458;2023-07-30T01:06:58;23.70;99.90
47660;DHT22;33403;43.608;1.458;2023-07-30T01:09:24;23.70;99.90
47660;DHT22;33403;43.608;1.458;2023-07-30T01:11:50;23.70;99.90
47660;DHT22;33403;43.608;1.458;2023-07-30T01:14:17;23.70;99.90
47660;DHT22;33403;43.608;1.458;2023-07-30T01:16:44;23.60;99.90
47660;DHT22;33403;43.608;1.458;2023-07-30T01:19:10;23.60;99.90
47660;DHT22;33403;43.608;1.458;2023-07-30T01:21:36;23.60;99.90
47660;DHT22;33403;43.608;1.458;2023-07-30T01:24:02;23.50;99.90
47660;DHT22;33403;43.608;1.458;2023-07-30T01:26:43;23.50;99.90
47660;DHT22;33403;43.608;1.458;2023-07-30T01:29:42;23.60;99.90
47660;DHT22;33403;43.608;1.458;2023-07-30T01:32:10;23.50;99.90
47660;DHT22;33403;43.608;1.458;2023-07-30T01:34:37;23.50;99.90
47660;DHT22;33403;43.608;1.458;2023-07-30T01:37:09;23.50;99.90
47660;DHT22;33403;43.608;1.458;2023-07-30T01:39:37;23.40;99.90
47660;DHT22;33403;43.608;1.458;2023-07-30T01:42:04;23.40;99.90
47660;DHT22;33403;43.608;1.458;2023-07-30T01:44:30;23.40;99.90
47660;DHT22;33403;43.608;1.458;2023-07-30T01:46:55;23.40;99.90
47660;DHT22;33403;43.608;1.458;2023-07-30T01:49:21;23.40;99.90
47660;DHT22;33403;43.608;1.458;2023-07-30T01:51:47;23.30;99.90
47660;DHT22;33403;43.608;1.458;2023-07-30T01:54:12;23.30;99.90
47660;DHT22;33403;43.608;1.458;2023-07-30T01:56:39;23.30;99.90
47660;DHT22;33403;43.608;1.458;2023-07-30T01:59:05;23.30;99.90
47660;DHT22;33403;43.608;1.458;2023-07-30T02:01:30;23.30;99.90
47660;DHT22;33403;43.608;1.458;2023-07-30T02:03:56;23.30;99.90
47660;DHT22;33403;43.608;1.458;2023-07-30T02:06:22;23.20;99.90
47660;DHT22;33403;43.608;1.458;2023-07-30T02:08:47;23.20;99.90
47660;DHT22;33403;43.608;1.458;2023-07-30T02:11:13;23.20;99.90
47660;DHT22;33403;43.608;1.458;2023-07-30T02:13:39;23.10;99.90
47660;DHT22;33403;43.608;1.458;2023-07-30T02:16:04;23.10;99.90
47660;DHT22;33403;43.608;1.458;2023-07-30T02:18:30;23.10;99.90
47660;DHT22;33403;43.608;1.458;2023-07-30T02:20:55;23.10;99.90
47660;DHT22;33403;43.608;1.458;2023-07-30T02:23:21;23.10;99.90
47660;DHT22;33403;43.608;1.458;2023-07-30T02:25:47;23.10;99.90
47660;DHT22;33403;43.608;1.458;2023-07-30T02:28:12;23.10;99.90
47660;DHT22;33403;43.608;1.458;2023-07-30T02:30:38;23.10;99.90
47660;DHT22;33403;43.608;1.458;2023-07-30T02:33:04;23.00;99.90
47660;DHT22;33403;43.608;1.458;2023-07-30T02:35:29;23.00;99.90
47660;DHT22;33403;43.608;1.458;2023-07-30T02:37:55;23.00;99.90
47660;DHT22;33403;43.608;1.458;2023-07-30T02:40:20;23.00;99.90
47660;DHT22;33403;43.608;1.458;2023-07-30T02:42:46;23.00;99.90
47660;DHT22;33403;43.608;1.458;2023-07-30T02:45:12;22.90;99.90
47660;DHT22;33403;43.608;1.458;2023-07-30T02:47:37;22.80;99.90
47660;DHT22;33403;43.608;1.458;2023-07-30T02:50:04;22.90;99.90
47660;DHT22;33403;43.608;1.458;2023-07-30T02:52:30;22.80;99.90
47660;DHT22;33403;43.608;1.458;2023-07-30T02:54:55;22.80;99.90
47660;DHT22;33403;43.608;1.458;2023-07-30T02:57:21;22.80;99.90
47660;DHT22;33403;43.608;1.458;2023-07-30T02:59:47;22.80;99.90
47660;DHT22;33403;43.608;1.458;2023-07-30T03:02:12;22.80;99.90
47660;DHT22;33403;43.608;1.458;2023-07-30T03:04:38;22.70;99.90
47660;DHT22;33403;43.608;1.458;2023-07-30T03:07:04;22.70;99.90
47660;DHT22;33403;43.608;1.458;2023-07-30T03:09:30;22.60;99.90
47660;DHT22;33403;43.608;1.458;2023-07-30T03:11:55;22.60;99.90
47660;DHT22;33403;43.608;1.458;2023-07-30T03:14:21;22.60;99.90
47660;DHT22;33403;43.608;1.458;2023-07-30T03:16:47;22.50;99.90
47660;DHT22;33403;43.608;1.458;2023-07-30T03:19:13;22.50;99.90
47660;DHT22;33403;43.608;1.458;2023-07-30T03:21:39;22.50;99.90
47660;DHT22;33403;43.608;1.458;2023-07-30T03:24:04;22.50;99.90
47660;DHT22;33403;43.608;1.458;2023-07-30T03:26:30;22.50;99.90
47660;DHT22;33403;43.608;1.458;2023-07-30T03:28:56;22.50;99.90
47660;DHT22;33403;43.608;1.458;2023-07-30T03:31:21;22.50;99.90
47660;DHT22;33403;43.608;1.458;2023-07-30T03:33:47;22.50;99.90
47660;DHT22;33403;43.608;1.458;2023-07-30T03:36:13;22.50;99.90
47660;DHT22;33403;43.608;1.458;2023-07-30T03:38:40;22.40;99.90
47660;DHT22;33403;43.608;1.458;2023-07-30T03:41:06;22.40;99.90
47660;DHT22;33403;43.608;1.458;2023-07-30T03:43:35;22.40;99.90
47660;DHT22;33403;43.608;1.458;2023-07-30T03:46:01;22.40;99.90
47660;DHT22;33403;43.608;1.458;2023-07-30T03:48:27;22.40;99.90
47660;DHT22;33403;43.608;1.458;2023-07-30T03:50:53;22.40;99.90
47660;DHT22;33403;43.608;1.458;2023-07-30T03:53:19;22.30;99.90
47660;DHT22;33403;43.608;1.458;2023-07-30T03:55:45;22.30;99.90
47660;DHT22;33403;43.608;1.458;2023-07-30T03:58:10;22.40;99.90
47660;DHT22;33403;43.608;1.458;2023-07-30T04:00:36;22.30;99.90
47660;DHT22;33403;43.608;1.458;2023-07-30T04:03:02;22.30;99.90
47660;DHT22;33403;43.608;1.458;2023-07-30T04:05:28;22.30;99.90
47660;DHT22;33403;43.608;1.458;2023-07-30T04:07:53;22.30;99.90
47660;DHT22;33403;43.608;1.458;2023-07-30T04:10:19;22.30;99.90
47660;DHT22;33403;43.608;1.458;2023-07-30T04:12:45;22.30;99.90
47660;DHT22;33403;43.608;1.458;2023-07-30T04:15:10;22.30;99.90
47660;DHT22;33403;43.608;1.458;2023-07-30T04:17:37;22.30;99.90
47660;DHT22;33403;43.608;1.458;2023-07-30T04:20:03;22.20;99.90
47660;DHT22;33403;43.608;1.458;2023-07-30T04:22:30;22.30;99.90
47660;DHT22;33403;43.608;1.458;2023-07-30T04:24:55;22.30;99.90
47660;DHT22;33403;43.608;1.458;2023-07-30T04:27:21;22.30;99.90
47660;DHT22;33403;43.608;1.458;2023-07-30T04:29:46;22.20;99.90
47660;DHT22;33403;43.608;1.458;2023-07-30T04:32:12;22.20;99.90
47660;DHT22;33403;43.608;1.458;2023-07-30T04:34:38;22.10;99.90
47660;DHT22;33403;43.608;1.458;2023-07-30T04:37:04;22.10;99.90
47660;DHT22;33403;43.608;1.458;2023-07-30T04:39:32;22.20;99.90
47660;DHT22;33403;43.608;1.458;2023-07-30T04:41:57;22.20;99.90
47660;DHT22;33403;43.608;1.458;2023-07-30T04:44:23;22.10;99.90
47660;DHT22;33403;43.608;1.458;2023-07-30T04:46:48;22.10;99.90
47660;DHT22;33403;43.608;1.458;2023-07-30T04:49:14;22.10;99.90
47660;DHT22;33403;43.608;1.458;2023-07-30T04:51:40;22.10;99.90
47660;DHT22;33403;43.608;1.458;2023-07-30T04:54:05;22.10;99.90
47660;DHT22;33403;43.608;1.458;2023-07-30T04:56:31;22.20;99.90
47660;DHT22;33403;43.608;1.458;2023-07-30T04:58:57;22.10;99.90
47660;DHT22;33403;43.608;1.458;2023-07-30T05:01:24;22.00;99.90
47660;DHT22;33403;43.608;1.458;2023-07-30T05:03:49;22.00;99.90
47660;DHT22;33403;43.608;1.458;2023-07-30T05:06:15;22.00;99.90
47660;DHT22;33403;43.608;1.458;2023-07-30T05:08:40;22.00;99.90
47660;DHT22;33403;43.608;1.458;2023-07-30T05:11:06;22.00;99.90
47660;DHT22;33403;43.608;1.458;2023-07-30T05:13:32;22.00;99.90
47660;DHT22;33403;43.608;1.458;2023-07-30T05:15:57;22.00;99.90
47660;DHT22;33403;43.608;1.458;2023-07-30T05:18:23;22.00;99.90
47660;DHT22;33403;43.608;1.458;2023-07-30T05:20:49;22.10;99.90
47660;DHT22;33403;43.608;1.458;2023-07-30T05:23:15;22.10;99.90
47660;DHT22;33403;43.608;1.458;2023-07-30T05:25:40;22.00;99.90
47660;DHT22;33403;43.608;1.458;2023-07-30T05:28:06;22.10;99.90
47660;DHT22;33403;43.608;1.458;2023-07-30T05:30:32;22.10;99.90
47660;DHT22;33403;43.608;1.458;2023-07-30T05:32:57;22.10;99.90
47660;DHT22;33403;43.608;1.458;2023-07-30T05:35:23;22.20;99.90
47660;DHT22;33403;43.608;1.458;2023-07-30T05:37:49;22.20;99.90
47660;DHT22;33403;43.608;1.458;2023-07-30T05:40:14;22.10;99.90
47660;DHT22;33403;43.608;1.458;2023-07-30T05:42:40;22.10;99.90
47660;DHT22;33403;43.608;1.458;2023-07-30T05:45:07;22.10;99.90
47660;DHT22;33403;43.608;1.458;2023-07-30T05:47:33;22.10;99.90
47660;DHT22;33403;43.608;1.458;2023-07-30T05:49:59;22.10;99.90
47660;DHT22;33403;43.608;1.458;2023-07-30T05:52:24;22.00;99.90
47660;DHT22;33403;43.608;1.458;2023-07-30T05:54:50;22.10;99.90
47660;DHT22;33403;43.608;1.458;2023-07-30T05:57:16;22.10;99.90
47660;DHT22;33403;43.608;1.458;2023-07-30T05:59:41;22.20;99.90
47660;DHT22;33403;43.608;1.458;2023-07-30T06:02:07;22.00;99.90
47660;DHT22;33403;43.608;1.458;2023-07-30T06:04:33;22.00;99.90
47660;DHT22;33403;43.608;1.458;2023-07-30T06:07:03;22.00;99.90
47660;DHT22;33403;43.608;1.458;2023-07-30T06:09:28;22.00;99.90
47660;DHT22;33403;43.608;1.458;2023-07-30T06:11:56;22.10;99.90
47660;DHT22;33403;43.608;1.458;2023-07-30T06:14:23;22.10;99.90
47660;DHT22;33403;43.608;1.458;2023-07-30T06:16:48;22.00;99.90
47660;DHT22;33403;43.608;1.458;2023-07-30T06:19:14;22.10;99.90
47660;DHT22;33403;43.608;1.458;2023-07-30T06:21:40;22.10;99.90
47660;DHT22;33403;43.608;1.458;2023-07-30T06:24:05;22.20;99.90
47660;DHT22;33403;43.608;1.458;2023-07-30T06:26:31;22.20;99.90
47660;DHT22;33403;43.608;1.458;2023-07-30T06:28:57;22.20;99.90
47660;DHT22;33403;43.608;1.458;2023-07-30T06:31:23;22.20;99.90
47660;DHT22;33403;43.608;1.458;2023-07-30T06:33:49;22.20;99.90
47660;DHT22;33403;43.608;1.458;2023-07-30T06:36:14;22.20;99.90
47660;DHT22;33403;43.608;1.458;2023-07-30T06:38:40;22.20;99.90
47660;DHT22;33403;43.608;1.458;2023-07-30T06:41:06;22.10;99.90
47660;DHT22;33403;43.608;1.458;2023-07-30T06:43:31;22.10;99.90
47660;DHT22;33403;43.608;1.458;2023-07-30T06:45:57;22.20;99.90
47660;DHT22;33403;43.608;1.458;2023-07-30T06:48:23;22.30;99.90
47660;DHT22;33403;43.608;1.458;2023-07-30T06:50:48;22.40;99.90
47660;DHT22;33403;43.608;1.458;2023-07-30T06:53:14;22.40;99.90
47660;DHT22;33403;43.608;1.458;2023-07-30T06:55:40;22.50;99.90
47660;DHT22;33403;43.608;1.458;2023-07-30T06:58:05;22.80;99.90
47660;DHT22;33403;43.608;1.458;2023-07-30T07:00:31;23.00;99.90
47660;DHT22;33403;43.608;1.458;2023-07-30T07:02:56;23.10;99.90
47660;DHT22;33403;43.608;1.458;2023-07-30T07:05:22;23.10;99.90
47660;DHT22;33403;43.608;1.458;2023-07-30T07:07:48;23.20;99.90
47660;DHT22;33403;43.608;1.458;2023-07-30T07:10:13;23.50;99.90
47660;DHT22;33403;43.608;1.458;2023-07-30T07:12:40;23.80;99.90
47660;DHT22;33403;43.608;1.458;2023-07-30T07:15:06;23.80;99.90
47660;DHT22;33403;43.608;1.458;2023-07-30T07:17:32;24.00;99.90
47660;DHT22;33403;43.608;1.458;2023-07-30T07:19:58;24.10;99.90
47660;DHT22;33403;43.608;1.458;2023-07-30T07:22:24;24.10;99.90
47660;DHT22;33403;43.608;1.458;2023-07-30T07:24:51;23.90;99.90
47660;DHT22;33403;43.608;1.458;2023-07-30T07:27:18;23.90;99.90
47660;DHT22;33403;43.608;1.458;2023-07-30T07:29:44;23.90;99.90
47660;DHT22;33403;43.608;1.458;2023-07-30T07:32:09;23.90;99.90
47660;DHT22;33403;43.608;1.458;2023-07-30T07:34:35;24.00;99.90
47660;DHT22;33403;43.608;1.458;2023-07-30T07:37:02;24.00;99.90
47660;DHT22;33403;43.608;1.458;2023-07-30T07:39:28;24.00;99.90
47660;DHT22;33403;43.608;1.458;2023-07-30T07:41:54;24.10;99.90
47660;DHT22;33403;43.608;1.458;2023-07-30T07:44:19;24.10;99.90
47660;DHT22;33403;43.608;1.458;2023-07-30T07:46:45;24.10;99.90
47660;DHT22;33403;43.608;1.458;2023-07-30T07:49:10;24.20;99.90
47660;DHT22;33403;43.608;1.458;2023-07-30T07:51:36;24.40;99.90
47660;DHT22;33403;43.608;1.458;2023-07-30T07:54:02;24.40;99.90
47660;DHT22;33403;43.608;1.458;2023-07-30T07:56:29;24.40;99.90
47660;DHT22;33403;43.608;1.458;2023-07-30T07:58:54;24.30;99.90
47660;DHT22;33403;43.608;1.458;2023-07-30T08:01:20;24.20;99.90
47660;DHT22;33403;43.608;1.458;2023-07-30T08:03:45;24.00;99.90
47660;DHT22;33403;43.608;1.458;2023-07-30T08:06:11;23.90;99.90
47660;DHT22;33403;43.608;1.458;2023-07-30T08:08:37;23.90;99.90
47660;DHT22;33403;43.608;1.458;2023-07-30T08:11:09;24.20;99.90
47660;DHT22;33403;43.608;1.458;2023-07-30T08:13:35;24.40;99.90
47660;DHT22;33403;43.608;1.458;2023-07-30T08:16:01;24.60;99.90
47660;DHT22;33403;43.608;1.458;2023-07-30T08:18:27;24.70;99.90
47660;DHT22;33403;43.608;1.458;2023-07-30T08:20:53;24.80;99.90
47660;DHT22;33403;43.608;1.458;2023-07-30T08:23:19;25.00;99.90
47660;DHT22;33403;43.608;1.458;2023-07-30T08:25:45;25.10;99.90
47660;DHT22;33403;43.608;1.458;2023-07-30T08:28:11;25.30;99.90
47660;DHT22;33403;43.608;1.458;2023-07-30T08:30:37;25.40;99.90
47660;DHT22;33403;43.608;1.458;2023-07-30T08:33:02;25.40;99.90
47660;DHT22;33403;43.608;1.458;2023-07-30T08:35:28;25.30;99.90
47660;DHT22;33403;43.608;1.458;2023-07-30T08:37:54;25.40;99.90
47660;DHT22;33403;43.608;1.458;2023-07-30T08:40:23;25.30;99.90
47660;DHT22;33403;43.608;1.458;2023-07-30T08:42:50;25.20;98.80
47660;DHT22;33403;43.608;1.458;2023-07-30T08:45:17;25.00;99.40
47660;DHT22;33403;43.608;1.458;2023-07-30T08:47:43;25.00;99.50
47660;DHT22;33403;43.608;1.458;2023-07-30T08:50:10;25.00;99.70
47660;DHT22;33403;43.608;1.458;2023-07-30T08:52:36;25.00;98.60
47660;DHT22;33403;43.608;1.458;2023-07-30T08:55:03;24.90;98.30
47660;DHT22;33403;43.608;1.458;2023-07-30T08:57:29;24.80;98.60
47660;DHT22;33403;43.608;1.458;2023-07-30T09:00:06;25.10;98.90
47660;DHT22;33403;43.608;1.458;2023-07-30T09:02:52;25.30;97.70
47660;DHT22;33403;43.608;1.458;2023-07-30T09:05:20;25.30;97.00
47660;DHT22;33403;43.608;1.458;2023-07-30T09:07:46;25.70;96.60
47660;DHT22;33403;43.608;1.458;2023-07-30T09:10:12;25.90;96.10
47660;DHT22;33403;43.608;1.458;2023-07-30T09:12:38;26.00;95.20
47660;DHT22;33403;43.608;1.458;2023-07-30T09:15:04;26.00;95.30
47660;DHT22;33403;43.608;1.458;2023-07-30T09:17:31;26.20;94.50
47660;DHT22;33403;43.608;1.458;2023-07-30T09:19:59;26.30;92.50
47660;DHT22;33403;43.608;1.458;2023-07-30T09:22:27;26.30;93.00
47660;DHT22;33403;43.608;1.458;2023-07-30T09:24:56;26.30;92.60
47660;DHT22;33403;43.608;1.458;2023-07-30T09:27:24;26.30;92.50
47660;DHT22;33403;43.608;1.458;2023-07-30T09:29:56;26.30;92.50
47660;DHT22;33403;43.608;1.458;2023-07-30T09:32:30;26.60;92.90
47660;DHT22;33403;43.608;1.458;2023-07-30T09:35:04;26.50;92.00
47660;DHT22;33403;43.608;1.458;2023-07-30T09:37:33;26.20;90.70
47660;DHT22;33403;43.608;1.458;2023-07-30T09:39:58;26.10;92.50
47660;DHT22;33403;43.608;1.458;2023-07-30T09:42:27;26.10;92.80
47660;DHT22;33403;43.608;1.458;2023-07-30T09:44:53;26.20;93.30
47660;DHT22;33403;43.608;1.458;2023-07-30T09:47:26;26.20;92.60
47660;DHT22;33403;43.608;1.458;2023-07-30T09:49:52;26.10;92.80
47660;DHT22;33403;43.608;1.458;2023-07-30T09:52:19;26.10;93.10
47660;DHT22;33403;43.608;1.458;2023-07-30T09:54:45;26.10;93.40
47660;DHT22;33403;43.608;1.458;2023-07-30T09:57:12;26.30;92.40
47660;DHT22;33403;43.608;1.458;2023-07-30T09:59:37;26.50;92.00
47660;DHT22;33403;43.608;1.458;2023-07-30T10:02:04;26.60;91.00
47660;DHT22;33403;43.608;1.458;2023-07-30T10:04:31;26.70;91.30
47660;DHT22;33403;43.608;1.458;2023-07-30T10:07:06;26.70;91.10
47660;DHT22;33403;43.608;1.458;2023-07-30T10:09:39;26.80;91.30
47660;DHT22;33403;43.608;1.458;2023-07-30T10:12:15;26.80;91.60
47660;DHT22;33403;43.608;1.458;2023-07-30T10:14:42;26.90;91.20
47660;DHT22;33403;43.608;1.458;2023-07-30T10:17:10;27.10;91.20
47660;DHT22;33403;43.608;1.458;2023-07-30T10:19:36;26.80;90.30
47660;DHT22;33403;43.608;1.458;2023-07-30T10:24:40;27.20;88.80
47660;DHT22;33403;43.608;1.458;2023-07-30T10:27:09;27.40;90.20
47660;DHT22;33403;43.608;1.458;2023-07-30T10:29:40;27.40;87.60
47660;DHT22;33403;43.608;1.458;2023-07-30T10:32:07;27.40;88.70
47660;DHT22;33403;43.608;1.458;2023-07-30T10:34:59;27.40;89.60
47660;DHT22;33403;43.608;1.458;2023-07-30T10:37:25;27.30;87.50
47660;DHT22;33403;43.608;1.458;2023-07-30T10:39:51;27.30;89.30
47660;DHT22;33403;43.608;1.458;2023-07-30T10:42:17;27.00;87.80
47660;DHT22;33403;43.608;1.458;2023-07-30T10:44:44;26.60;86.30
47660;DHT22;33403;43.608;1.458;2023-07-30T10:47:11;26.40;90.70
47660;DHT22;33403;43.608;1.458;2023-07-30T10:49:37;26.20;91.30
47660;DHT22;33403;43.608;1.458;2023-07-30T10:52:04;25.80;92.10
47660;DHT22;33403;43.608;1.458;2023-07-30T10:54:34;25.80;92.50
47660;DHT22;33403;43.608;1.458;2023-07-30T10:57:03;26.00;93.00
47660;DHT22;33403;43.608;1.458;2023-07-30T10:59:36;26.20;92.90
47660;DHT22;33403;43.608;1.458;2023-07-30T11:02:03;26.30;93.20
47660;DHT22;33403;43.608;1.458;2023-07-30T11:04:29;26.20;93.00
47660;DHT22;33403;43.608;1.458;2023-07-30T11:06:58;26.10;92.10
47660;DHT22;33403;43.608;1.458;2023-07-30T11:09:26;25.90;92.60
47660;DHT22;33403;43.608;1.458;2023-07-30T11:11:54;25.70;92.70
47660;DHT22;33403;43.608;1.458;2023-07-30T11:14:22;25.80;93.80
47660;DHT22;33403;43.608;1.458;2023-07-30T11:16:49;25.90;94.50
47660;DHT22;33403;43.608;1.458;2023-07-30T11:19:16;26.00;94.00
47660;DHT22;33403;43.608;1.458;2023-07-30T11:21:46;26.10;92.40
47660;DHT22;33403;43.608;1.458;2023-07-30T11:24:12;25.70;91.10
47660;DHT22;33403;43.608;1.458;2023-07-30T11:26:38;25.60;91.90
47660;DHT22;33403;43.608;1.458;2023-07-30T11:31:43;25.70;93.50
47660;DHT22;33403;43.608;1.458;2023-07-30T11:34:09;25.70;93.10
47660;DHT22;33403;43.608;1.458;2023-07-30T11:36:35;25.70;93.20
47660;DHT22;33403;43.608;1.458;2023-07-30T11:39:01;25.70;93.40
47660;DHT22;33403;43.608;1.458;2023-07-30T11:41:27;25.70;94.40
47660;DHT22;33403;43.608;1.458;2023-07-30T11:43:54;25.70;94.00
47660;DHT22;33403;43.608;1.458;2023-07-30T11:46:20;25.80;92.70
47660;DHT22;33403;43.608;1.458;2023-07-30T11:48:52;25.80;93.30
47660;DHT22;33403;43.608;1.458;2023-07-30T11:51:26;25.80;92.40
47660;DHT22;33403;43.608;1.458;2023-07-30T11:53:56;25.50;93.00
47660;DHT22;33403;43.608;1.458;2023-07-30T11:58:50;25.40;93.90
47660;DHT22;33403;43.608;1.458;2023-07-30T12:01:17;25.20;94.20
47660;DHT22;33403;43.608;1.458;2023-07-30T12:03:43;25.20;94.10
47660;DHT22;33403;43.608;1.458;2023-07-30T12:06:10;25.20;93.70
47660;DHT22;33403;43.608;1.458;2023-07-30T12:08:36;25.30;93.60
47660;DHT22;33403;43.608;1.458;2023-07-30T12:11:04;25.40;93.30
47660;DHT22;33403;43.608;1.458;2023-07-30T12:13:30;25.50;93.20
47660;DHT22;33403;43.608;1.458;2023-07-30T12:15:56;25.70;93.60
47660;DHT22;33403;43.608;1.458;2023-07-30T12:18:24;25.90;93.20
47660;DHT22;33403;43.608;1.458;2023-07-30T12:20:51;26.10;93.20
47660;DHT22;33403;43.608;1.458;2023-07-30T12:23:17;26.20;93.40
47660;DHT22;33403;43.608;1.458;2023-07-30T12:25:43;26.20;93.40
47660;DHT22;33403;43.608;1.458;2023-07-30T12:28:09;26.00;93.80
47660;DHT22;33403;43.608;1.458;2023-07-30T12:30:35;25.80;94.80
47660;DHT22;33403;43.608;1.458;2023-07-30T12:33:02;25.60;95.20
47660;DHT22;33403;43.608;1.458;2023-07-30T12:35:29;25.50;91.50
47660;DHT22;33403;43.608;1.458;2023-07-30T12:37:55;25.40;93.00
47660;DHT22;33403;43.608;1.458;2023-07-30T12:40:20;25.40;94.00
47660;DHT22;33403;43.608;1.458;2023-07-30T12:42:46;25.50;91.10
47660;DHT22;33403;43.608;1.458;2023-07-30T12:45:12;25.50;93.90
47660;DHT22;33403;43.608;1.458;2023-07-30T12:47:37;25.50;93.70
47660;DHT22;33403;43.608;1.458;2023-07-30T12:50:04;25.60;94.00
47660;DHT22;33403;43.608;1.458;2023-07-30T12:52:32;25.70;93.70
47660;DHT22;33403;43.608;1.458;2023-07-30T12:54:57;25.80;95.00
47660;DHT22;33403;43.608;1.458;2023-07-30T12:57:23;25.80;95.10
47660;DHT22;33403;43.608;1.458;2023-07-30T12:59:48;25.90;95.00
47660;DHT22;33403;43.608;1.458;2023-07-30T13:02:14;26.00;95.00
47660;DHT22;33403;43.608;1.458;2023-07-30T13:04:40;26.10;94.50
47660;DHT22;33403;43.608;1.458;2023-07-30T13:07:05;26.20;93.50
47660;DHT22;33403;43.608;1.458;2023-07-30T13:09:31;26.20;94.30
47660;DHT22;33403;43.608;1.458;2023-07-30T13:11:57;26.10;94.60
47660;DHT22;33403;43.608;1.458;2023-07-30T13:14:23;25.90;95.60
47660;DHT22;33403;43.608;1.458;2023-07-30T13:16:49;25.60;95.40
47660;DHT22;33403;43.608;1.458;2023-07-30T13:19:15;25.50;96.00
47660;DHT22;33403;43.608;1.458;2023-07-30T13:21:40;25.50;96.40
47660;DHT22;33403;43.608;1.458;2023-07-30T13:24:06;25.40;96.70
47660;DHT22;33403;43.608;1.458;2023-07-30T13:26:32;25.50;96.10
47660;DHT22;33403;43.608;1.458;2023-07-30T13:28:57;25.90;94.50
47660;DHT22;33403;43.608;1.458;2023-07-30T13:31:23;25.90;95.30
47660;DHT22;33403;43.608;1.458;2023-07-30T13:33:48;25.90;95.40
47660;DHT22;33403;43.608;1.458;2023-07-30T13:36:16;25.60;96.20
47660;DHT22;33403;43.608;1.458;2023-07-30T13:38:42;25.60;96.50
47660;DHT22;33403;43.608;1.458;2023-07-30T13:41:09;25.80;94.30
47660;DHT22;33403;43.608;1.458;2023-07-30T13:43:35;25.90;95.30
47660;DHT22;33403;43.608;1.458;2023-07-30T13:46:01;25.90;93.50
47660;DHT22;33403;43.608;1.458;2023-07-30T13:48:27;25.80;93.90
47660;DHT22;33403;43.608;1.458;2023-07-30T13:50:53;25.70;92.40
47660;DHT22;33403;43.608;1.458;2023-07-30T13:53:18;25.80;93.70
47660;DHT22;33403;43.608;1.458;2023-07-30T13:55:45;25.80;92.80
47660;DHT22;33403;43.608;1.458;2023-07-30T13:58:10;25.80;94.00
47660;DHT22;33403;43.608;1.458;2023-07-30T14:00:36;25.90;94.30
47660;DHT22;33403;43.608;1.458;2023-07-30T14:03:02;26.20;93.20
47660;DHT22;33403;43.608;1.458;2023-07-30T14:05:28;26.50;90.50
47660;DHT22;33403;43.608;1.458;2023-07-30T14:07:54;26.70;92.00
47660;DHT22;33403;43.608;1.458;2023-07-30T14:10:22;26.80;90.50
47660;DHT22;33403;43.608;1.458;2023-07-30T14:12:48;26.60;91.60
47660;DHT22;33403;43.608;1.458;2023-07-30T14:15:14;26.40;92.80
47660;DHT22;33403;43.608;1.458;2023-07-30T14:17:40;26.10;92.30
47660;DHT22;33403;43.608;1.458;2023-07-30T14:20:06;26.00;91.50
47660;DHT22;33403;43.608;1.458;2023-07-30T14:22:33;26.10;90.50
47660;DHT22;33403;43.608;1.458;2023-07-30T14:24:58;26.20;90.10
47660;DHT22;33403;43.608;1.458;2023-07-30T14:27:24;26.40;91.30
47660;DHT22;33403;43.608;1.458;2023-07-30T14:29:50;26.60;91.70
47660;DHT22;33403;43.608;1.458;2023-07-30T14:32:19;26.70;91.40
47660;DHT22;33403;43.608;1.458;2023-07-30T14:34:44;26.80;91.50
47660;DHT22;33403;43.608;1.458;2023-07-30T14:37:10;26.80;92.10
47660;DHT22;33403;43.608;1.458;2023-07-30T14:39:36;26.70;90.70
47660;DHT22;33403;43.608;1.458;2023-07-30T14:42:01;26.70;91.00
47660;DHT22;33403;43.608;1.458;2023-07-30T14:44:27;26.80;91.20
47660;DHT22;33403;43.608;1.458;2023-07-30T14:46:53;26.80;89.00
47660;DHT22;33403;43.608;1.458;2023-07-30T14:49:19;26.80;90.50
47660;DHT22;33403;43.608;1.458;2023-07-30T14:51:45;26.60;88.00
47660;DHT22;33403;43.608;1.458;2023-07-30T14:54:12;26.50;86.40
47660;DHT22;33403;43.608;1.458;2023-07-30T14:56:38;26.60;90.00
47660;DHT22;33403;43.608;1.458;2023-07-30T14:59:03;26.70;91.90
47660;DHT22;33403;43.608;1.458;2023-07-30T15:01:29;26.70;91.60
47660;DHT22;33403;43.608;1.458;2023-07-30T15:03:56;26.50;91.40
47660;DHT22;33403;43.608;1.458;2023-07-30T15:06:23;26.20;93.00
47660;DHT22;33403;43.608;1.458;2023-07-30T15:08:49;26.10;92.60
47660;DHT22;33403;43.608;1.458;2023-07-30T15:11:15;25.90;93.60
47660;DHT22;33403;43.608;1.458;2023-07-30T15:13:41;25.70;94.40
47660;DHT22;33403;43.608;1.458;2023-07-30T15:16:07;25.70;93.30
47660;DHT22;33403;43.608;1.458;2023-07-30T15:18:32;25.70;94.00
47660;DHT22;33403;43.608;1.458;2023-07-30T15:20:58;25.60;94.60
47660;DHT22;33403;43.608;1.458;2023-07-30T15:23:24;25.60;94.00
47660;DHT22;33403;43.608;1.458;2023-07-30T15:25:50;25.50;95.70
47660;DHT22;33403;43.608;1.458;2023-07-30T15:28:17;25.60;93.70
47660;DHT22;33403;43.608;1.458;2023-07-30T15:30:43;25.50;95.00
47660;DHT22;33403;43.608;1.458;2023-07-30T15:33:09;25.50;94.10